sensor_id;sensor_type;location;lat;lon;timestamp;pressure;altitude;pressure_sealevel;temperature;humidity
57791;BME280;43621;51.798;21.588;2024-03-23T00:57:51;99176.58;;;10.49;67.44
57791;BME280;43621;51.798;21.588;2024-03-23T01:01:53;99172.70;;;10.44;67.48
57791;BME280;43621;51.798;21.588;2024-03-23T01:05:54;99173.64;;;10.42;67.88
57791;BME280;43621;51.798;21.588;2024-03-23T01:09:56;99172.15;;;10.34;68.05
57791;BME280;43621;51.798;21.588;2024-03-23T01:13:57;99161.40;;;10.29;67.99
57791;BME280;43621;51.798;21.588;2024-03-23T01:17:59;99152.38;;;10.27;68.08
57791;BME280;43621;51.798;21.588;2024-03-23T01:22:00;99147.34;;;10.23;68.32
57791;BME280;43621;51.798;21.588;2024-03-23T01:26:02;99142.23;;;10.20;68.82
57791;BME280;43621;51.798;21.588;2024-03-23T01:30:03;99135.42;;;10.13;69.00
57791;BME280;43621;51.798;21.588;2024-03-23T01:34:05;99129.58;;;10.09;69.07
57791;BME280;43621;51.798;21.588;2024-03-23T01:38:06;99123.95;;;10.09;69.37
57791;BME280;43621;51.798;21.588;2024-03-23T01:42:08;99120.20;;;10.04;70.00
57791;BME280;43621;51.798;21.588;2024-03-23T01:46:09;99116.66;;;9.99;69.83
57791;BME280;43621;51.798;21.588;2024-03-23T01:50:11;99119.61;;;10.03;69.52
57791;BME280;43621;51.798;21.588;2024-03-23T01:54:13;99113.83;;;10.06;69.84
57791;BME280;43621;51.798;21.588;2024-03-23T01:58:14;99106.14;;;10.01;70.92
57791;BME280;43621;51.798;21.588;2024-03-23T02:02:16;99105.36;;;9.97;70.61
57791;BME280;43621;51.798;21.588;2024-03-23T02:06:18;99104.58;;;9.94;70.63
57791;BME280;43621;51.798;21.588;2024-03-23T02:10:20;99102.75;;;9.95;70.73
57791;BME280;43621;51.798;21.588;2024-03-23T02:14:21;99100.77;;;9.99;70.61
57791;BME280;43621;51.798;21.588;2024-03-23T02:18:23;99104.90;;;10.03;70.72
57791;BME280;43621;51.798;21.588;2024-03-23T02:22:24;99102.64;;;10.03;70.75
57791;BME280;43621;51.798;21.588;2024-03-23T02:26:26;99095.14;;;10.07;70.61
57791;BME280;43621;51.798;21.588;2024-03-23T02:30:27;99090.42;;;10.05;71.35
57791;BME280;43621;51.798;21.588;2024-03-23T02:34:28;99085.22;;;10.02;71.25
57791;BME280;43621;51.798;21.588;2024-03-23T02:38:30;99080.80;;;10.02;70.95
57791;BME280;43621;51.798;21.588;2024-03-23T02:42:31;99081.13;;;9.99;71.05
57791;BME280;43621;51.798;21.588;2024-03-23T02:46:33;99077.39;;;9.96;71.52
57791;BME280;43621;51.798;21.588;2024-03-23T02:50:34;99073.04;;;9.96;71.62
57791;BME280;43621;51.798;21.588;2024-03-23T02:54:35;99073.26;;;9.95;71.50
57791;BME280;43621;51.798;21.588;2024-03-23T02:58:37;99066.98;;;9.94;71.89
57791;BME280;43621;51.798;21.588;2024-03-23T03:02:38;99064.43;;;9.85;72.71
57791;BME280;43621;51.798;21.588;2024-03-23T03:06:40;99063.45;;;9.82;72.20
57791;BME280;43621;51.798;21.588;2024-03-23T03:10:42;99050.11;;;9.83;72.36
57791;BME280;43621;51.798;21.588;2024-03-23T03:14:43;99048.00;;;9.85;72.40
57791;BME280;43621;51.798;21.588;2024-03-23T03:18:44;99050.15;;;9.85;72.33
57791;BME280;43621;51.798;21.588;2024-03-23T03:22:47;99045.70;;;9.85;72.06
57791;BME280;43621;51.798;21.588;2024-03-23T03:26:49;99044.98;;;9.91;72.08
57791;BME280;43621;51.798;21.588;2024-03-23T03:30:51;99039.92;;;9.96;72.09
57791;BME280;43621;51.798;21.588;2024-03-23T03:34:52;99038.00;;;9.98;72.13
57791;BME280;43621;51.798;21.588;2024-03-23T03:38:53;99032.02;;;10.00;72.14
57791;BME280;43621;51.798;21.588;2024-03-23T03:42:55;99028.67;;;9.93;72.98
57791;BME280;43621;51.798;21.588;2024-03-23T03:46:56;99026.32;;;9.83;72.90
57791;BME280;43621;51.798;21.588;2024-03-23T03:50:57;99022.35;;;9.80;72.60
57791;BME280;43621;51.798;21.588;2024-03-23T03:55:02;99019.88;;;9.81;72.72
57791;BME280;43621;51.798;21.588;2024-03-23T03:59:04;99021.05;;;9.81;72.61
57791;BME280;43621;51.798;21.588;2024-03-23T04:03:05;99023.68;;;9.86;72.47
57791;BME280;43621;51.798;21.588;2024-03-23T04:07:07;99027.48;;;9.93;72.51
57791;BME280;43621;51.798;21.588;2024-03-23T04:11:08;99026.95;;;9.95;72.68
57791;BME280;43621;51.798;21.588;2024-03-23T04:15:10;99025.66;;;9.90;72.70
57791;BME280;43621;51.798;21.588;2024-03-23T04:19:11;99021.66;;;9.90;72.47
57791;BME280;43621;51.798;21.588;2024-03-23T04:23:12;99019.71;;;9.92;72.56
57791;BME280;43621;51.798;21.588;2024-03-23T04:27:14;99020.56;;;9.93;72.55
57791;BME280;43621;51.798;21.588;2024-03-23T04:31:15;99017.79;;;9.94;72.41
57791;BME280;43621;51.798;21.588;2024-03-23T04:35:16;99012.89;;;9.92;72.29
57791;BME280;43621;51.798;21.588;2024-03-23T04:39:18;99009.88;;;9.95;72.55
57791;BME280;43621;51.798;21.588;2024-03-23T04:43:20;99009.42;;;9.98;72.60
57791;BME280;43621;51.798;21.588;2024-03-23T04:47:22;99005.54;;;9.98;72.65
57791;BME280;43621;51.798;21.588;2024-03-23T04:51:23;98999.61;;;9.91;72.75
57791;BME280;43621;51.798;21.588;2024-03-23T04:55:25;98997.41;;;9.89;73.15
57791;BME280;43621;51.798;21.588;2024-03-23T04:59:26;98999.40;;;9.88;73.01
57791;BME280;43621;51.798;21.588;2024-03-23T05:03:28;98992.59;;;9.85;73.30
57791;BME280;43621;51.798;21.588;2024-03-23T05:07:30;98990.44;;;9.82;73.12
57791;BME280;43621;51.798;21.588;2024-03-23T05:11:32;98990.66;;;9.85;73.00
57791;BME280;43621;51.798;21.588;2024-03-23T05:15:33;98984.73;;;9.88;72.80
57791;BME280;43621;51.798;21.588;2024-03-23T05:19:35;98975.67;;;9.90;72.63
57791;BME280;43621;51.798;21.588;2024-03-23T05:23:36;98971.62;;;9.85;73.10
57791;BME280;43621;51.798;21.588;2024-03-23T05:27:39;98972.68;;;9.82;73.13
57791;BME280;43621;51.798;21.588;2024-03-23T05:31:40;98966.73;;;9.81;73.25
57791;BME280;43621;51.798;21.588;2024-03-23T05:35:45;98968.15;;;9.85;73.12
57791;BME280;43621;51.798;21.588;2024-03-23T05:39:46;98979.10;;;9.89;73.37
57791;BME280;43621;51.798;21.588;2024-03-23T05:43:49;98972.58;;;9.88;73.31
57791;BME280;43621;51.798;21.588;2024-03-23T05:47:50;98969.34;;;9.92;73.06
57791;BME280;43621;51.798;21.588;2024-03-23T05:51:52;98961.87;;;9.97;73.00
57791;BME280;43621;51.798;21.588;2024-03-23T05:56:00;98960.34;;;10.02;73.35
57791;BME280;43621;51.798;21.588;2024-03-23T06:00:05;98961.44;;;9.96;73.34
57791;BME280;43621;51.798;21.588;2024-03-23T06:04:11;98959.02;;;9.96;73.15
57791;BME280;43621;51.798;21.588;2024-03-23T06:08:13;98957.77;;;9.97;73.21
57791;BME280;43621;51.798;21.588;2024-03-23T06:12:14;98953.90;;;9.87;74.03
57791;BME280;43621;51.798;21.588;2024-03-23T06:16:15;98943.28;;;9.83;73.94
57791;BME280;43621;51.798;21.588;2024-03-23T06:20:17;98945.23;;;9.81;74.30
57791;BME280;43621;51.798;21.588;2024-03-23T06:24:18;98947.01;;;9.84;73.98
57791;BME280;43621;51.798;21.588;2024-03-23T06:28:19;98942.14;;;9.87;74.17
57791;BME280;43621;51.798;21.588;2024-03-23T06:32:22;98940.14;;;9.88;74.03
57791;BME280;43621;51.798;21.588;2024-03-23T06:36:23;98940.78;;;9.97;73.97
57791;BME280;43621;51.798;21.588;2024-03-23T06:40:25;98939.29;;;10.06;73.68
57791;BME280;43621;51.798;21.588;2024-03-23T06:44:26;98937.78;;;10.03;74.20
57791;BME280;43621;51.798;21.588;2024-03-23T06:48:27;98935.59;;;9.99;73.94
57791;BME280;43621;51.798;21.588;2024-03-23T06:52:29;98927.67;;;10.03;73.81
57791;BME280;43621;51.798;21.588;2024-03-23T06:56:31;98926.11;;;10.09;73.84
57791;BME280;43621;51.798;21.588;2024-03-23T07:00:32;98926.29;;;10.17;73.76
57791;BME280;43621;51.798;21.588;2024-03-23T07:04:34;98921.64;;;10.25;73.70
57791;BME280;43621;51.798;21.588;2024-03-23T07:08:36;98919.08;;;10.33;73.73
57791;BME280;43621;51.798;21.588;2024-03-23T07:12:37;98920.45;;;10.34;73.63
57791;BME280;43621;51.798;21.588;2024-03-23T07:16:39;98922.87;;;10.33;73.61
57791;BME280;43621;51.798;21.588;2024-03-23T07:20:40;98925.46;;;10.28;73.54
57791;BME280;43621;51.798;21.588;2024-03-23T07:24:42;98926.05;;;10.26;73.96
57791;BME280;43621;51.798;21.588;2024-03-23T07:28:44;98927.19;;;10.20;73.81
57791;BME280;43621;51.798;21.588;2024-03-23T07:32:47;98925.84;;;10.20;73.81
57791;BME280;43621;51.798;21.588;2024-03-23T07:36:48;98914.55;;;10.18;73.63
57791;BME280;43621;51.798;21.588;2024-03-23T07:40:50;98902.01;;;10.22;73.96
57791;BME280;43621;51.798;21.588;2024-03-23T07:44:56;98898.38;;;10.33;74.25
57791;BME280;43621;51.798;21.588;2024-03-23T07:48:58;98893.12;;;10.43;73.97
57791;BME280;43621;51.798;21.588;2024-03-23T07:52:59;98878.55;;;10.52;73.58
57791;BME280;43621;51.798;21.588;2024-03-23T07:57:00;98877.58;;;10.53;73.71
57791;BME280;43621;51.798;21.588;2024-03-23T08:01:09;98880.86;;;10.49;73.53
57791;BME280;43621;51.798;21.588;2024-03-23T08:05:10;98881.08;;;10.42;74.02
57791;BME280;43621;51.798;21.588;2024-03-23T08:09:12;98879.92;;;10.33;73.99
57791;BME280;43621;51.798;21.588;2024-03-23T08:13:13;98876.46;;;10.31;73.92
57791;BME280;43621;51.798;21.588;2024-03-23T08:17:15;98871.83;;;10.31;73.98
57791;BME280;43621;51.798;21.588;2024-03-23T08:21:17;98870.55;;;10.26;73.84
57791;BME280;43621;51.798;21.588;2024-03-23T08:25:19;98860.70;;;10.25;74.15
57791;BME280;43621;51.798;21.588;2024-03-23T08:29:21;98857.66;;;10.21;74.34
57791;BME280;43621;51.798;21.588;2024-03-23T08:33:23;98854.18;;;10.13;74.73
57791;BME280;43621;51.798;21.588;2024-03-23T08:37:25;98852.95;;;10.11;74.63
57791;BME280;43621;51.798;21.588;2024-03-23T08:41:28;98850.42;;;10.12;74.69
57791;BME280;43621;51.798;21.588;2024-03-23T08:45:29;98842.67;;;10.13;75.00
57791;BME280;43621;51.798;21.588;2024-03-23T08:49:31;98840.35;;;10.15;75.09
57791;BME280;43621;51.798;21.588;2024-03-23T08:53:32;98833.81;;;10.09;75.38
57791;BME280;43621;51.798;21.588;2024-03-23T08:57:34;98827.35;;;10.03;75.80
57791;BME280;43621;51.798;21.588;2024-03-23T09:01:35;98812.23;;;10.09;75.43
57791;BME280;43621;51.798;21.588;2024-03-23T09:05:39;98801.61;;;10.20;75.23
57791;BME280;43621;51.798;21.588;2024-03-23T09:09:40;98791.41;;;10.27;75.35
57791;BME280;43621;51.798;21.588;2024-03-23T09:13:42;98782.20;;;10.33;75.43
57791;BME280;43621;51.798;21.588;2024-03-23T09:17:43;98777.48;;;10.46;75.29
57791;BME280;43621;51.798;21.588;2024-03-23T09:21:44;98778.21;;;10.52;75.50
57791;BME280;43621;51.798;21.588;2024-03-23T09:25:46;98765.19;;;10.69;75.22
57791;BME280;43621;51.798;21.588;2024-03-23T09:29:47;98753.08;;;10.96;75.04
57791;BME280;43621;51.798;21.588;2024-03-23T09:33:48;98745.23;;;11.28;74.70
57791;BME280;43621;51.798;21.588;2024-03-23T09:37:50;98728.55;;;11.79;74.23
57791;BME280;43621;51.798;21.588;2024-03-23T09:41:56;98728.30;;;13.08;73.15
57791;BME280;43621;51.798;21.588;2024-03-23T09:45:58;98729.34;;;13.75;70.02
57791;BME280;43621;51.798;21.588;2024-03-23T09:50:00;98728.45;;;14.05;68.99
57791;BME280;43621;51.798;21.588;2024-03-23T09:54:02;98725.32;;;14.23;68.27
57791;BME280;43621;51.798;21.588;2024-03-23T09:58:04;98718.91;;;14.08;66.80
57791;BME280;43621;51.798;21.588;2024-03-23T10:02:06;98711.05;;;13.94;66.70
57791;BME280;43621;51.798;21.588;2024-03-23T10:06:08;98703.02;;;13.98;66.58
57791;BME280;43621;51.798;21.588;2024-03-23T10:10:10;98695.28;;;14.38;65.83
57791;BME280;43621;51.798;21.588;2024-03-23T10:14:22;98680.78;;;15.33;65.28
57791;BME280;43621;51.798;21.588;2024-03-23T10:18:29;98676.02;;;16.62;61.11
57791;BME280;43621;51.798;21.588;2024-03-23T10:22:37;98667.71;;;18.03;57.84
57791;BME280;43621;51.798;21.588;2024-03-23T10:26:39;98655.46;;;19.46;56.27
57791;BME280;43621;51.798;21.588;2024-03-23T10:30:40;98653.36;;;20.13;54.17
57791;BME280;43621;51.798;21.588;2024-03-23T10:34:43;98647.70;;;19.72;51.39
57791;BME280;43621;51.798;21.588;2024-03-23T10:38:44;98637.96;;;19.82;52.94
57791;BME280;43621;51.798;21.588;2024-03-23T10:42:46;98629.40;;;19.98;50.11
57791;BME280;43621;51.798;21.588;2024-03-23T10:46:47;98623.02;;;20.20;49.75
57791;BME280;43621;51.798;21.588;2024-03-23T10:50:49;98603.67;;;20.15;49.32
57791;BME280;43621;51.798;21.588;2024-03-23T10:54:54;98581.08;;;19.79;49.57
57791;BME280;43621;51.798;21.588;2024-03-23T10:58:57;98569.45;;;20.30;49.71
57791;BME280;43621;51.798;21.588;2024-03-23T11:02:59;98551.20;;;20.98;49.41
57791;BME280;43621;51.798;21.588;2024-03-23T11:07:01;98534.18;;;21.68;48.66
57791;BME280;43621;51.798;21.588;2024-03-23T11:11:17;98524.55;;;22.09;46.47
57791;BME280;43621;51.798;21.588;2024-03-23T11:15:19;98515.11;;;21.70;45.89
57791;BME280;43621;51.798;21.588;2024-03-23T11:19:36;98499.99;;;21.27;45.69
57791;BME280;43621;51.798;21.588;2024-03-23T11:23:38;98483.23;;;20.77;46.19
57791;BME280;43621;51.798;21.588;2024-03-23T11:27:39;98479.55;;;20.38;46.83
57791;BME280;43621;51.798;21.588;2024-03-23T11:31:48;98479.60;;;20.08;47.66
57791;BME280;43621;51.798;21.588;2024-03-23T11:35:50;98474.35;;;19.81;48.07
57791;BME280;43621;51.798;21.588;2024-03-23T11:39:52;98467.00;;;19.56;48.54
57791;BME280;43621;51.798;21.588;2024-03-23T11:43:53;98466.30;;;19.44;47.96
57791;BME280;43621;51.798;21.588;2024-03-23T11:48:11;98466.02;;;19.24;48.13
57791;BME280;43621;51.798;21.588;2024-03-23T11:52:15;98456.72;;;19.24;48.60
57791;BME280;43621;51.798;21.588;2024-03-23T11:56:17;98455.56;;;19.20;48.30
57791;BME280;43621;51.798;21.588;2024-03-23T12:00:21;98447.89;;;18.87;48.13
57791;BME280;43621;51.798;21.588;2024-03-23T12:04:27;98437.90;;;18.31;49.01
57791;BME280;43621;51.798;21.588;2024-03-23T12:12:31;98415.48;;;18.93;49.33
57791;BME280;43621;51.798;21.588;2024-03-23T12:16:33;98408.27;;;19.38;48.28
57791;BME280;43621;51.798;21.588;2024-03-23T12:20:34;98403.05;;;19.78;47.48
57791;BME280;43621;51.798;21.588;2024-03-23T12:24:35;98398.02;;;19.93;45.51
57791;BME280;43621;51.798;21.588;2024-03-23T12:28:37;98391.20;;;20.04;45.55
57791;BME280;43621;51.798;21.588;2024-03-23T12:32:38;98384.89;;;20.28;46.03
57791;BME280;43621;51.798;21.588;2024-03-23T12:36:40;98377.20;;;20.51;46.26
57791;BME280;43621;51.798;21.588;2024-03-23T12:40:41;98372.15;;;20.58;44.97
57791;BME280;43621;51.798;21.588;2024-03-23T12:44:42;98367.84;;;20.35;43.91
57791;BME280;43621;51.798;21.588;2024-03-23T12:48:47;98359.23;;;19.76;43.83
57791;BME280;43621;51.798;21.588;2024-03-23T12:52:48;98351.43;;;19.42;44.53
57791;BME280;43621;51.798;21.588;2024-03-23T12:56:50;98346.77;;;19.17;45.01
57791;BME280;43621;51.798;21.588;2024-03-23T13:00:51;98336.39;;;18.94;45.30
57791;BME280;43621;51.798;21.588;2024-03-23T13:04:53;98332.50;;;18.57;45.32
57791;BME280;43621;51.798;21.588;2024-03-23T13:08:54;98318.39;;;18.45;46.38
57791;BME280;43621;51.798;21.588;2024-03-23T13:12:56;98308.36;;;18.75;46.26
57791;BME280;43621;51.798;21.588;2024-03-23T13:16:57;98303.88;;;18.78;46.30
57791;BME280;43621;51.798;21.588;2024-03-23T13:20:59;98297.02;;;18.61;46.98
57791;BME280;43621;51.798;21.588;2024-03-23T13:25:00;98288.85;;;18.49;47.08
57791;BME280;43621;51.798;21.588;2024-03-23T13:29:02;98282.23;;;18.34;47.73
57791;BME280;43621;51.798;21.588;2024-03-23T13:33:04;98273.23;;;18.13;47.95
57791;BME280;43621;51.798;21.588;2024-03-23T13:37:05;98262.58;;;17.87;48.31
57791;BME280;43621;51.798;21.588;2024-03-23T13:41:08;98246.91;;;17.57;48.53
57791;BME280;43621;51.798;21.588;2024-03-23T13:45:13;98239.16;;;17.27;49.14
57791;BME280;43621;51.798;21.588;2024-03-23T13:49:26;98234.48;;;17.10;49.74
57791;BME280;43621;51.798;21.588;2024-03-23T13:53:28;98222.30;;;17.02;49.97
57791;BME280;43621;51.798;21.588;2024-03-23T13:57:29;98202.93;;;16.97;50.22
57791;BME280;43621;51.798;21.588;2024-03-23T14:01:31;98195.16;;;17.03;50.33
57791;BME280;43621;51.798;21.588;2024-03-23T14:05:33;98185.80;;;17.11;50.39
57791;BME280;43621;51.798;21.588;2024-03-23T14:09:34;98179.27;;;17.13;50.22
57791;BME280;43621;51.798;21.588;2024-03-23T14:13:36;98172.15;;;17.08;50.30
57791;BME280;43621;51.798;21.588;2024-03-23T14:17:38;98175.72;;;16.89;50.39
57791;BME280;43621;51.798;21.588;2024-03-23T14:21:40;98166.06;;;16.81;50.54
57791;BME280;43621;51.798;21.588;2024-03-23T14:25:41;98167.80;;;16.75;50.74
57791;BME280;43621;51.798;21.588;2024-03-23T14:29:45;98159.23;;;16.69;51.11
57791;BME280;43621;51.798;21.588;2024-03-23T14:33:47;98147.34;;;16.62;51.26
57791;BME280;43621;51.798;21.588;2024-03-23T14:37:49;98138.52;;;16.55;51.64
57791;BME280;43621;51.798;21.588;2024-03-23T14:41:50;98137.27;;;16.46;51.82
57791;BME280;43621;51.798;21.588;2024-03-23T14:46:21;98122.92;;;16.33;52.08
57791;BME280;43621;51.798;21.588;2024-03-23T14:50:23;98116.21;;;16.23;52.37
57791;BME280;43621;51.798;21.588;2024-03-23T14:54:25;98113.77;;;16.10;52.79
57791;BME280;43621;51.798;21.588;2024-03-23T14:58:27;98106.84;;;15.95;53.41
57791;BME280;43621;51.798;21.588;2024-03-23T15:02:28;98096.23;;;15.81;53.86
57791;BME280;43621;51.798;21.588;2024-03-23T15:06:31;98092.85;;;15.66;54.21
57791;BME280;43621;51.798;21.588;2024-03-23T15:10:34;98086.45;;;15.59;54.31
57791;BME280;43621;51.798;21.588;2024-03-23T15:14:35;98077.03;;;15.58;54.61
57791;BME280;43621;51.798;21.588;2024-03-23T15:18:37;98068.63;;;15.58;54.85
57791;BME280;43621;51.798;21.588;2024-03-23T15:22:38;98066.08;;;15.51;55.09
57791;BME280;43621;51.798;21.588;2024-03-23T15:26:40;98063.20;;;15.42;55.48
57791;BME280;43621;51.798;21.588;2024-03-23T15:30:43;98050.70;;;15.34;55.68
57791;BME280;43621;51.798;21.588;2024-03-23T15:34:44;98032.33;;;15.25;56.01
57791;BME280;43621;51.798;21.588;2024-03-23T15:38:45;98022.68;;;15.11;56.42
57791;BME280;43621;51.798;21.588;2024-03-23T15:42:47;98022.38;;;14.95;56.40
57791;BME280;43621;51.798;21.588;2024-03-23T15:46:48;98025.77;;;14.87;56.53
57791;BME280;43621;51.798;21.588;2024-03-23T15:50:53;98037.94;;;14.82;56.74
57791;BME280;43621;51.798;21.588;2024-03-23T15:54:55;98053.45;;;14.78;56.90
57791;BME280;43621;51.798;21.588;2024-03-23T15:58:59;98075.32;;;14.75;57.53
57791;BME280;43621;51.798;21.588;2024-03-23T16:56:48;98169.35;;;12.16;68.16
57791;BME280;43621;51.798;21.588;2024-03-23T17:00:49;98136.30;;;11.88;71.29
57791;BME280;43621;51.798;21.588;2024-03-23T17:04:50;98163.69;;;11.58;70.62
57791;BME280;43621;51.798;21.588;2024-03-23T17:08:51;98178.22;;;11.59;70.06
57791;BME280;43621;51.798;21.588;2024-03-23T17:12:53;98185.35;;;11.64;69.46
57791;BME280;43621;51.798;21.588;2024-03-23T17:16:54;98160.02;;;11.63;69.40
57791;BME280;43621;51.798;21.588;2024-03-23T17:20:55;98156.39;;;11.63;69.54
57791;BME280;43621;51.798;21.588;2024-03-23T17:24:57;98182.89;;;11.58;69.54
57791;BME280;43621;51.798;21.588;2024-03-23T17:28:58;98198.17;;;11.57;69.96
57791;BME280;43621;51.798;21.588;2024-03-23T17:32:59;98198.65;;;11.61;70.14
57791;BME280;43621;51.798;21.588;2024-03-23T17:36:59;98203.69;;;11.62;69.59
57791;BME280;43621;51.798;21.588;2024-03-23T17:41:00;98209.21;;;11.61;70.81
57791;BME280;43621;51.798;21.588;2024-03-23T17:45:02;98218.48;;;11.61;70.17
57791;BME280;43621;51.798;21.588;2024-03-23T17:49:03;98229.81;;;11.66;70.34
57791;BME280;43621;51.798;21.588;2024-03-23T17:53:04;98242.59;;;11.64;70.67
57791;BME280;43621;51.798;21.588;2024-03-23T17:57:06;98249.29;;;11.59;70.38
57791;BME280;43621;51.798;21.588;2024-03-23T18:01:07;98255.40;;;11.54;70.59
57791;BME280;43621;51.798;21.588;2024-03-23T18:05:08;98257.16;;;11.52;70.72
57791;BME280;43621;51.798;21.588;2024-03-23T18:09:09;98267.39;;;11.50;71.27
57791;BME280;43621;51.798;21.588;2024-03-23T18:13:11;98275.46;;;11.51;71.15
57791;BME280;43621;51.798;21.588;2024-03-23T18:17:11;98278.63;;;11.53;71.43
57791;BME280;43621;51.798;21.588;2024-03-23T18:21:12;98277.88;;;11.54;71.65
57791;BME280;43621;51.798;21.588;2024-03-23T18:25:13;98287.45;;;11.56;71.37
57791;BME280;43621;51.798;21.588;2024-03-23T18:29:14;98299.14;;;11.60;71.18
57791;BME280;43621;51.798;21.588;2024-03-23T18:33:16;98308.52;;;11.64;71.21
57791;BME280;43621;51.798;21.588;2024-03-23T18:37:17;98321.34;;;11.53;71.00
57791;BME280;43621;51.798;21.588;2024-03-23T18:41:18;98331.64;;;11.44;70.61
57791;BME280;43621;51.798;21.588;2024-03-23T18:45:19;98333.35;;;11.34;70.00
57791;BME280;43621;51.798;21.588;2024-03-23T18:49:21;98341.54;;;11.24;69.33
57791;BME280;43621;51.798;21.588;2024-03-23T18:53:22;98340.42;;;11.11;68.90
57791;BME280;43621;51.798;21.588;2024-03-23T18:57:23;98354.03;;;10.97;68.53
57791;BME280;43621;51.798;21.588;2024-03-23T19:01:23;98349.90;;;10.86;68.48
57791;BME280;43621;51.798;21.588;2024-03-23T19:05:24;98347.27;;;10.72;68.32
57791;BME280;43621;51.798;21.588;2024-03-23T19:09:25;98352.89;;;10.62;68.30
57791;BME280;43621;51.798;21.588;2024-03-23T19:13:29;98353.13;;;10.56;68.32
57791;BME280;43621;51.798;21.588;2024-03-23T19:17:30;98351.35;;;10.50;68.45
57791;BME280;43621;51.798;21.588;2024-03-23T19:21:31;98351.45;;;10.49;68.49
57791;BME280;43621;51.798;21.588;2024-03-23T19:25:31;98353.11;;;10.47;68.52
57791;BME280;43621;51.798;21.588;2024-03-23T19:29:32;98365.53;;;10.39;68.38
57791;BME280;43621;51.798;21.588;2024-03-23T19:33:33;98377.05;;;10.30;68.48
57791;BME280;43621;51.798;21.588;2024-03-23T19:37:34;98384.28;;;10.22;68.27
57791;BME280;43621;51.798;21.588;2024-03-23T19:41:35;98399.17;;;10.14;68.46
57791;BME280;43621;51.798;21.588;2024-03-23T19:45:36;98417.83;;;10.08;68.24
57791;BME280;43621;51.798;21.588;2024-03-23T19:49:38;98420.20;;;10.01;68.16
57791;BME280;43621;51.798;21.588;2024-03-23T19:53:39;98445.16;;;9.91;68.05
57791;BME280;43621;51.798;21.588;2024-03-23T19:57:39;98461.87;;;9.74;67.55
57791;BME280;43621;51.798;21.588;2024-03-23T20:01:40;98480.60;;;9.50;67.09
57791;BME280;43621;51.798;21.588;2024-03-23T20:05:41;98496.10;;;9.26;67.08
57791;BME280;43621;51.798;21.588;2024-03-23T20:09:43;98511.86;;;9.08;67.31
57791;BME280;43621;51.798;21.588;2024-03-23T20:13:44;98510.61;;;8.94;67.21
57791;BME280;43621;51.798;21.588;2024-03-23T20:17:45;98516.85;;;8.83;67.19
57791;BME280;43621;51.798;21.588;2024-03-23T20:21:46;98527.77;;;8.77;67.12
57791;BME280;43621;51.798;21.588;2024-03-23T20:25:53;98527.75;;;8.71;67.25
57791;BME280;43621;51.798;21.588;2024-03-23T20:29:54;98536.20;;;8.56;67.16
57791;BME280;43621;51.798;21.588;2024-03-23T20:33:55;98546.70;;;8.40;67.13
57791;BME280;43621;51.798;21.588;2024-03-23T20:37:57;98565.46;;;8.31;67.26
57791;BME280;43621;51.798;21.588;2024-03-23T20:41:58;98571.64;;;8.27;67.22
57791;BME280;43621;51.798;21.588;2024-03-23T20:46:01;98586.85;;;8.24;67.34
57791;BME280;43621;51.798;21.588;2024-03-23T20:50:03;98597.20;;;8.17;67.30
57791;BME280;43621;51.798;21.588;2024-03-23T20:54:05;98609.20;;;8.12;67.12
57791;BME280;43621;51.798;21.588;2024-03-23T20:58:07;98614.13;;;8.01;66.88
57791;BME280;43621;51.798;21.588;2024-03-23T21:02:09;98619.13;;;7.88;66.99
57791;BME280;43621;51.798;21.588;2024-03-23T21:06:09;98621.61;;;7.79;66.99
57791;BME280;43621;51.798;21.588;2024-03-23T21:10:10;98611.86;;;7.72;67.14
57791;BME280;43621;51.798;21.588;2024-03-23T21:14:11;98615.44;;;7.66;67.13
57791;BME280;43621;51.798;21.588;2024-03-23T21:18:12;98622.68;;;7.63;67.14
57791;BME280;43621;51.798;21.588;2024-03-23T21:22:14;98622.31;;;7.60;67.18
57791;BME280;43621;51.798;21.588;2024-03-23T21:26:14;98628.52;;;7.55;67.19
57791;BME280;43621;51.798;21.588;2024-03-23T21:30:15;98631.56;;;7.53;67.43
57791;BME280;43621;51.798;21.588;2024-03-23T21:34:19;98634.89;;;7.57;67.51
57791;BME280;43621;51.798;21.588;2024-03-23T21:38:20;98634.15;;;7.60;67.61
57791;BME280;43621;51.798;21.588;2024-03-23T21:42:20;98637.38;;;7.60;67.61
57791;BME280;43621;51.798;21.588;2024-03-23T21:46:21;98638.98;;;7.57;67.30
57791;BME280;43621;51.798;21.588;2024-03-23T21:50:22;98639.19;;;7.51;67.43
57791;BME280;43621;51.798;21.588;2024-03-23T21:54:23;98641.73;;;7.47;67.42
57791;BME280;43621;51.798;21.588;2024-03-23T21:58:27;98649.40;;;7.41;67.54
57791;BME280;43621;51.798;21.588;2024-03-23T22:02:28;98657.96;;;7.35;67.60
57791;BME280;43621;51.798;21.588;2024-03-23T22:06:29;98661.95;;;7.30;67.48
57791;BME280;43621;51.798;21.588;2024-03-23T22:10:34;98638.77;;;7.27;67.51
57791;BME280;43621;51.798;21.588;2024-03-23T22:14:35;98635.39;;;7.28;67.54
57791;BME280;43621;51.798;21.588;2024-03-23T22:18:36;98653.84;;;7.29;67.47
57791;BME280;43621;51.798;21.588;2024-03-23T22:22:37;98653.34;;;7.27;67.39
57791;BME280;43621;51.798;21.588;2024-03-23T22:26:37;98646.23;;;7.19;67.17
57791;BME280;43621;51.798;21.588;2024-03-23T22:30:38;98641.76;;;7.10;67.13
57791;BME280;43621;51.798;21.588;2024-03-23T22:34:39;98640.56;;;7.02;67.22
57791;BME280;43621;51.798;21.588;2024-03-23T22:38:41;98655.94;;;7.04;67.26
57791;BME280;43621;51.798;21.588;2024-03-23T22:42:42;98687.13;;;7.07;66.99
57791;BME280;43621;51.798;21.588;2024-03-23T22:46:43;98698.36;;;7.09;67.10
57791;BME280;43621;51.798;21.588;2024-03-23T22:50:43;98696.50;;;7.12;67.06
57791;BME280;43621;51.798;21.588;2024-03-23T22:54:45;98708.18;;;7.12;66.96
57791;BME280;43621;51.798;21.588;2024-03-23T22:58:46;98715.42;;;7.11;66.89
57791;BME280;43621;51.798;21.588;2024-03-23T23:02:47;98715.37;;;7.11;66.95